sensor_id;sensor_type;location;lat;lon;timestamp;temperature;humidity
28845;DHT22;15976;47.938;7.758;2024-02-04T00:02:09;9.20;75.40
28845;DHT22;15976;47.938;7.758;2024-02-04T00:04:41;9.20;75.60
28845;DHT22;15976;47.938;7.758;2024-02-04T00:07:08;9.20;75.30
28845;DHT22;15976;47.938;7.758;2024-02-04T00:09:35;9.20;75.30
28845;DHT22;15976;47.938;7.758;2024-02-04T00:12:03;9.20;75.20
28845;DHT22;15976;47.938;7.758;2024-02-04T00:14:31;9.20;75.20
28845;DHT22;15976;47.938;7.758;2024-02-04T00:16:59;9.20;75.00
28845;DHT22;15976;47.938;7.758;2024-02-04T00:19:26;9.20;75.10
28845;DHT22;15976;47.938;7.758;2024-02-04T00:21:53;9.20;75.00
28845;DHT22;15976;47.938;7.758;2024-02-04T00:24:21;9.10;75.00
28845;DHT22;15976;47.938;7.758;2024-02-04T00:26:48;9.00;75.10
28845;DHT22;15976;47.938;7.758;2024-02-04T00:29:15;8.90;75.40
28845;DHT22;15976;47.938;7.758;2024-02-04T00:31:42;8.90;75.40
28845;DHT22;15976;47.938;7.758;2024-02-04T00:34:09;8.90;75.50
28845;DHT22;15976;47.938;7.758;2024-02-04T00:36:36;8.90;75.50
28845;DHT22;15976;47.938;7.758;2024-02-04T00:39:04;9.00;75.40
28845;DHT22;15976;47.938;7.758;2024-02-04T00:41:32;9.00;75.40
28845;DHT22;15976;47.938;7.758;2024-02-04T00:43:59;9.00;75.40
28845;DHT22;15976;47.938;7.758;2024-02-04T00:46:26;9.00;75.40
28845;DHT22;15976;47.938;7.758;2024-02-04T00:48:53;8.90;75.40
28845;DHT22;15976;47.938;7.758;2024-02-04T00:51:21;8.90;75.40
28845;DHT22;15976;47.938;7.758;2024-02-04T00:53:48;8.90;75.40
28845;DHT22;15976;47.938;7.758;2024-02-04T00:56:15;8.90;75.50
28845;DHT22;15976;47.938;7.758;2024-02-04T00:58:42;9.00;75.40
28845;DHT22;15976;47.938;7.758;2024-02-04T01:01:09;8.90;75.40
28845;DHT22;15976;47.938;7.758;2024-02-04T01:03:37;9.00;75.30
28845;DHT22;15976;47.938;7.758;2024-02-04T01:06:04;9.00;75.20
28845;DHT22;15976;47.938;7.758;2024-02-04T01:08:31;9.00;75.20
28845;DHT22;15976;47.938;7.758;2024-02-04T01:10:58;9.00;75.10
28845;DHT22;15976;47.938;7.758;2024-02-04T01:13:27;9.00;75.00
28845;DHT22;15976;47.938;7.758;2024-02-04T01:15:54;9.00;75.00
28845;DHT22;15976;47.938;7.758;2024-02-04T01:18:21;9.00;75.10
28845;DHT22;15976;47.938;7.758;2024-02-04T01:20:48;9.00;75.00
28845;DHT22;15976;47.938;7.758;2024-02-04T01:23:15;8.90;75.00
28845;DHT22;15976;47.938;7.758;2024-02-04T01:25:45;9.00;75.10
28845;DHT22;15976;47.938;7.758;2024-02-04T01:28:12;9.00;75.90
28845;DHT22;15976;47.938;7.758;2024-02-04T01:30:39;9.00;75.00
28845;DHT22;15976;47.938;7.758;2024-02-04T01:33:06;8.90;74.80
28845;DHT22;15976;47.938;7.758;2024-02-04T01:35:34;8.90;75.00
28845;DHT22;15976;47.938;7.758;2024-02-04T01:38:01;8.80;75.30
28845;DHT22;15976;47.938;7.758;2024-02-04T01:40:28;8.80;75.20
28845;DHT22;15976;47.938;7.758;2024-02-04T01:42:55;8.80;75.30
28845;DHT22;15976;47.938;7.758;2024-02-04T01:45:23;8.80;75.50
28845;DHT22;15976;47.938;7.758;2024-02-04T01:47:51;8.80;75.50
28845;DHT22;15976;47.938;7.758;2024-02-04T01:50:20;8.80;75.60
28845;DHT22;15976;47.938;7.758;2024-02-04T01:52:48;8.80;75.60
28845;DHT22;15976;47.938;7.758;2024-02-04T01:55:15;8.80;75.60
28845;DHT22;15976;47.938;7.758;2024-02-04T01:57:43;8.80;75.70
28845;DHT22;15976;47.938;7.758;2024-02-04T02:00:10;8.80;75.60
28845;DHT22;15976;47.938;7.758;2024-02-04T02:02:41;8.80;75.70
28845;DHT22;15976;47.938;7.758;2024-02-04T02:05:08;8.80;75.90
28845;DHT22;15976;47.938;7.758;2024-02-04T02:07:36;8.80;75.90
28845;DHT22;15976;47.938;7.758;2024-02-04T02:10:04;8.80;76.00
28845;DHT22;15976;47.938;7.758;2024-02-04T02:15:26;8.70;76.10
28845;DHT22;15976;47.938;7.758;2024-02-04T02:17:58;8.70;76.10
28845;DHT22;15976;47.938;7.758;2024-02-04T02:23:14;8.80;76.00
28845;DHT22;15976;47.938;7.758;2024-02-04T02:25:46;8.80;76.00
28845;DHT22;15976;47.938;7.758;2024-02-04T02:28:13;8.80;76.10
28845;DHT22;15976;47.938;7.758;2024-02-04T02:30:40;8.80;76.10
28845;DHT22;15976;47.938;7.758;2024-02-04T02:33:07;8.80;76.10
28845;DHT22;15976;47.938;7.758;2024-02-04T02:35:36;8.80;76.10
28845;DHT22;15976;47.938;7.758;2024-02-04T02:38:20;8.70;76.10
28845;DHT22;15976;47.938;7.758;2024-02-04T02:40:58;8.70;76.20
28845;DHT22;15976;47.938;7.758;2024-02-04T02:43:26;8.80;76.30
28845;DHT22;15976;47.938;7.758;2024-02-04T02:45:54;8.70;76.20
28845;DHT22;15976;47.938;7.758;2024-02-04T02:48:21;8.70;76.10
28845;DHT22;15976;47.938;7.758;2024-02-04T02:50:49;8.70;76.20
28845;DHT22;15976;47.938;7.758;2024-02-04T02:53:16;8.80;76.20
28845;DHT22;15976;47.938;7.758;2024-02-04T02:55:46;8.70;76.20
28845;DHT22;15976;47.938;7.758;2024-02-04T02:58:14;8.70;76.20
28845;DHT22;15976;47.938;7.758;2024-02-04T03:00:41;8.70;76.20
28845;DHT22;15976;47.938;7.758;2024-02-04T03:03:08;8.70;76.20
28845;DHT22;15976;47.938;7.758;2024-02-04T03:05:35;8.70;76.20
28845;DHT22;15976;47.938;7.758;2024-02-04T03:08:03;8.70;77.10
28845;DHT22;15976;47.938;7.758;2024-02-04T03:10:30;8.70;76.40
28845;DHT22;15976;47.938;7.758;2024-02-04T03:12:57;8.70;76.50
28845;DHT22;15976;47.938;7.758;2024-02-04T03:15:24;8.70;76.50
28845;DHT22;15976;47.938;7.758;2024-02-04T03:17:51;8.70;76.40
28845;DHT22;15976;47.938;7.758;2024-02-04T03:20:18;8.70;76.30
28845;DHT22;15976;47.938;7.758;2024-02-04T03:22:48;8.70;76.10
28845;DHT22;15976;47.938;7.758;2024-02-04T03:25:16;8.60;76.20
28845;DHT22;15976;47.938;7.758;2024-02-04T03:27:43;8.50;76.40
28845;DHT22;15976;47.938;7.758;2024-02-04T03:30:11;8.50;76.60
28845;DHT22;15976;47.938;7.758;2024-02-04T03:32:38;8.50;76.70
28845;DHT22;15976;47.938;7.758;2024-02-04T03:35:06;8.40;76.80
28845;DHT22;15976;47.938;7.758;2024-02-04T03:37:33;8.40;76.90
28845;DHT22;15976;47.938;7.758;2024-02-04T03:40:00;8.50;77.00
28845;DHT22;15976;47.938;7.758;2024-02-04T03:42:28;8.50;77.00
28845;DHT22;15976;47.938;7.758;2024-02-04T03:44:56;8.50;77.00
28845;DHT22;15976;47.938;7.758;2024-02-04T03:47:24;8.50;77.00
28845;DHT22;15976;47.938;7.758;2024-02-04T03:49:51;8.60;77.00
28845;DHT22;15976;47.938;7.758;2024-02-04T03:52:18;8.60;76.70
28845;DHT22;15976;47.938;7.758;2024-02-04T03:54:45;8.60;76.60
28845;DHT22;15976;47.938;7.758;2024-02-04T03:57:12;8.60;76.60
28845;DHT22;15976;47.938;7.758;2024-02-04T03:59:39;8.60;76.40
28845;DHT22;15976;47.938;7.758;2024-02-04T04:02:06;8.60;76.40
28845;DHT22;15976;47.938;7.758;2024-02-04T04:04:34;8.60;76.50
28845;DHT22;15976;47.938;7.758;2024-02-04T04:07:01;8.60;76.40
28845;DHT22;15976;47.938;7.758;2024-02-04T04:09:28;8.60;76.60
28845;DHT22;15976;47.938;7.758;2024-02-04T04:11:55;8.50;76.50
28845;DHT22;15976;47.938;7.758;2024-02-04T04:14:22;8.60;76.60
28845;DHT22;15976;47.938;7.758;2024-02-04T04:16:49;8.50;76.60
28845;DHT22;15976;47.938;7.758;2024-02-04T04:19:19;8.50;76.60
28845;DHT22;15976;47.938;7.758;2024-02-04T04:21:46;8.60;76.70
28845;DHT22;15976;47.938;7.758;2024-02-04T04:24:13;8.60;76.70
28845;DHT22;15976;47.938;7.758;2024-02-04T04:26:42;8.50;76.60
28845;DHT22;15976;47.938;7.758;2024-02-04T04:29:09;8.40;76.60
28845;DHT22;15976;47.938;7.758;2024-02-04T04:31:36;8.40;77.60
28845;DHT22;15976;47.938;7.758;2024-02-04T04:34:03;8.40;77.00
28845;DHT22;15976;47.938;7.758;2024-02-04T04:36:30;8.40;77.00
28845;DHT22;15976;47.938;7.758;2024-02-04T04:38:58;8.40;77.00
28845;DHT22;15976;47.938;7.758;2024-02-04T04:41:25;8.40;77.00
28845;DHT22;15976;47.938;7.758;2024-02-04T04:43:52;8.40;76.80
28845;DHT22;15976;47.938;7.758;2024-02-04T04:46:20;8.40;76.70
28845;DHT22;15976;47.938;7.758;2024-02-04T04:48:47;8.50;76.80
28845;DHT22;15976;47.938;7.758;2024-02-04T04:51:15;8.50;76.60
28845;DHT22;15976;47.938;7.758;2024-02-04T04:53:42;8.50;76.50
28845;DHT22;15976;47.938;7.758;2024-02-04T04:56:09;8.50;76.50
28845;DHT22;15976;47.938;7.758;2024-02-04T04:58:36;8.50;76.40
28845;DHT22;15976;47.938;7.758;2024-02-04T05:01:04;8.50;76.40
28845;DHT22;15976;47.938;7.758;2024-02-04T05:03:32;8.50;76.40
28845;DHT22;15976;47.938;7.758;2024-02-04T05:05:59;8.50;76.50
28845;DHT22;15976;47.938;7.758;2024-02-04T05:08:28;8.50;76.60
28845;DHT22;15976;47.938;7.758;2024-02-04T05:10:54;8.50;76.60
28845;DHT22;15976;47.938;7.758;2024-02-04T05:13:22;8.40;76.70
28845;DHT22;15976;47.938;7.758;2024-02-04T05:15:49;8.40;76.70
28845;DHT22;15976;47.938;7.758;2024-02-04T05:18:16;8.40;76.80
28845;DHT22;15976;47.938;7.758;2024-02-04T05:20:43;8.30;77.00
28845;DHT22;15976;47.938;7.758;2024-02-04T05:23:10;8.30;77.10
28845;DHT22;15976;47.938;7.758;2024-02-04T05:25:37;8.20;77.10
28845;DHT22;15976;47.938;7.758;2024-02-04T05:28:06;8.20;77.20
28845;DHT22;15976;47.938;7.758;2024-02-04T05:30:33;8.20;77.30
28845;DHT22;15976;47.938;7.758;2024-02-04T05:33:00;8.10;77.40
28845;DHT22;15976;47.938;7.758;2024-02-04T05:35:27;8.10;78.20
28845;DHT22;15976;47.938;7.758;2024-02-04T05:37:54;8.00;77.60
28845;DHT22;15976;47.938;7.758;2024-02-04T05:40:22;8.00;77.70
28845;DHT22;15976;47.938;7.758;2024-02-04T05:42:49;8.00;77.80
28845;DHT22;15976;47.938;7.758;2024-02-04T05:45:16;8.00;77.80
28845;DHT22;15976;47.938;7.758;2024-02-04T05:47:43;8.00;77.90
28845;DHT22;15976;47.938;7.758;2024-02-04T05:50:10;8.00;77.90
28845;DHT22;15976;47.938;7.758;2024-02-04T05:52:38;8.00;77.90
28845;DHT22;15976;47.938;7.758;2024-02-04T05:55:05;8.00;77.90
28845;DHT22;15976;47.938;7.758;2024-02-04T05:57:32;8.00;77.90
28845;DHT22;15976;47.938;7.758;2024-02-04T05:59:59;7.90;77.90
28845;DHT22;15976;47.938;7.758;2024-02-04T06:02:26;7.90;78.00
28845;DHT22;15976;47.938;7.758;2024-02-04T06:04:54;7.90;78.20
28845;DHT22;15976;47.938;7.758;2024-02-04T06:07:21;7.80;78.20
28845;DHT22;15976;47.938;7.758;2024-02-04T06:09:49;7.80;78.10
28845;DHT22;15976;47.938;7.758;2024-02-04T06:12:16;7.80;78.20
28845;DHT22;15976;47.938;7.758;2024-02-04T06:14:43;7.80;78.30
28845;DHT22;15976;47.938;7.758;2024-02-04T06:17:10;7.70;79.10
28845;DHT22;15976;47.938;7.758;2024-02-04T06:19:37;7.70;78.60
28845;DHT22;15976;47.938;7.758;2024-02-04T06:22:05;7.60;78.60
28845;DHT22;15976;47.938;7.758;2024-02-04T06:24:32;7.60;78.80
28845;DHT22;15976;47.938;7.758;2024-02-04T06:26:59;7.50;79.00
28845;DHT22;15976;47.938;7.758;2024-02-04T06:29:26;7.50;79.20
28845;DHT22;15976;47.938;7.758;2024-02-04T06:31:53;7.60;79.30
28845;DHT22;15976;47.938;7.758;2024-02-04T06:34:20;7.60;79.30
28845;DHT22;15976;47.938;7.758;2024-02-04T06:36:48;7.60;79.20
28845;DHT22;15976;47.938;7.758;2024-02-04T06:39:15;7.60;79.00
28845;DHT22;15976;47.938;7.758;2024-02-04T06:41:42;7.60;79.00
28845;DHT22;15976;47.938;7.758;2024-02-04T06:44:11;7.60;79.00
28845;DHT22;15976;47.938;7.758;2024-02-04T06:46:38;7.60;79.00
28845;DHT22;15976;47.938;7.758;2024-02-04T06:49:05;7.70;79.00
28845;DHT22;15976;47.938;7.758;2024-02-04T06:51:32;7.70;79.00
28845;DHT22;15976;47.938;7.758;2024-02-04T06:53:59;7.70;79.10
28845;DHT22;15976;47.938;7.758;2024-02-04T06:56:28;7.70;79.00
28845;DHT22;15976;47.938;7.758;2024-02-04T06:58:55;7.80;79.00
28845;DHT22;15976;47.938;7.758;2024-02-04T07:01:22;7.80;78.90
28845;DHT22;15976;47.938;7.758;2024-02-04T07:03:49;7.90;78.80
28845;DHT22;15976;47.938;7.758;2024-02-04T07:06:17;7.90;78.60
28845;DHT22;15976;47.938;7.758;2024-02-04T07:08:44;8.00;78.60
28845;DHT22;15976;47.938;7.758;2024-02-04T07:11:11;8.00;78.40
28845;DHT22;15976;47.938;7.758;2024-02-04T07:13:38;8.00;78.20
28845;DHT22;15976;47.938;7.758;2024-02-04T07:16:05;8.00;78.50
28845;DHT22;15976;47.938;7.758;2024-02-04T07:18:33;7.90;78.10
28845;DHT22;15976;47.938;7.758;2024-02-04T07:21:00;8.00;78.20
28845;DHT22;15976;47.938;7.758;2024-02-04T07:23:27;7.90;78.10
28845;DHT22;15976;47.938;7.758;2024-02-04T07:25:54;8.00;78.10
28845;DHT22;15976;47.938;7.758;2024-02-04T07:28:22;7.90;78.10
28845;DHT22;15976;47.938;7.758;2024-02-04T07:30:49;7.90;78.10
28845;DHT22;15976;47.938;7.758;2024-02-04T07:33:16;7.90;78.10
28845;DHT22;15976;47.938;7.758;2024-02-04T07:35:43;8.00;78.80
28845;DHT22;15976;47.938;7.758;2024-02-04T07:38:10;8.00;77.80
28845;DHT22;15976;47.938;7.758;2024-02-04T07:40:37;8.10;77.70
28845;DHT22;15976;47.938;7.758;2024-02-04T07:43:04;8.10;77.50
28845;DHT22;15976;47.938;7.758;2024-02-04T07:45:32;8.20;77.30
28845;DHT22;15976;47.938;7.758;2024-02-04T07:47:59;8.30;77.10
28845;DHT22;15976;47.938;7.758;2024-02-04T07:50:26;8.40;76.80
28845;DHT22;15976;47.938;7.758;2024-02-04T07:52:53;8.40;76.60
28845;DHT22;15976;47.938;7.758;2024-02-04T07:55:21;8.50;76.40
28845;DHT22;15976;47.938;7.758;2024-02-04T07:57:48;8.50;76.20
28845;DHT22;15976;47.938;7.758;2024-02-04T08:00:15;8.50;75.90
28845;DHT22;15976;47.938;7.758;2024-02-04T08:02:44;8.60;75.70
28845;DHT22;15976;47.938;7.758;2024-02-04T08:05:12;8.60;75.60
28845;DHT22;15976;47.938;7.758;2024-02-04T08:07:39;8.60;75.40
28845;DHT22;15976;47.938;7.758;2024-02-04T08:10:08;8.50;75.30
28845;DHT22;15976;47.938;7.758;2024-02-04T08:12:36;8.50;75.40
28845;DHT22;15976;47.938;7.758;2024-02-04T08:15:03;8.50;75.50
28845;DHT22;15976;47.938;7.758;2024-02-04T08:17:31;8.40;75.60
28845;DHT22;15976;47.938;7.758;2024-02-04T08:20:00;8.30;75.70
28845;DHT22;15976;47.938;7.758;2024-02-04T08:22:27;8.30;75.80
28845;DHT22;15976;47.938;7.758;2024-02-04T08:24:54;8.30;75.80
28845;DHT22;15976;47.938;7.758;2024-02-04T08:27:21;8.30;76.40
28845;DHT22;15976;47.938;7.758;2024-02-04T08:29:49;8.30;76.10
28845;DHT22;15976;47.938;7.758;2024-02-04T08:32:16;8.30;76.10
28845;DHT22;15976;47.938;7.758;2024-02-04T08:34:43;8.30;76.20
28845;DHT22;15976;47.938;7.758;2024-02-04T08:37:12;8.20;76.20
28845;DHT22;15976;47.938;7.758;2024-02-04T08:39:42;8.30;76.20
28845;DHT22;15976;47.938;7.758;2024-02-04T08:42:09;8.30;76.20
28845;DHT22;15976;47.938;7.758;2024-02-04T08:44:37;8.30;76.30
28845;DHT22;15976;47.938;7.758;2024-02-04T08:47:06;8.40;76.30
28845;DHT22;15976;47.938;7.758;2024-02-04T08:49:37;8.40;76.20
28845;DHT22;15976;47.938;7.758;2024-02-04T08:52:04;8.40;76.00
28845;DHT22;15976;47.938;7.758;2024-02-04T08:54:32;8.40;75.90
28845;DHT22;15976;47.938;7.758;2024-02-04T08:56:59;8.40;75.80
28845;DHT22;15976;47.938;7.758;2024-02-04T08:59:26;8.50;76.60
28845;DHT22;15976;47.938;7.758;2024-02-04T09:01:53;8.50;75.70
28845;DHT22;15976;47.938;7.758;2024-02-04T09:04:20;8.50;75.60
28845;DHT22;15976;47.938;7.758;2024-02-04T09:06:47;8.60;75.50
28845;DHT22;15976;47.938;7.758;2024-02-04T09:09:14;8.60;75.40
28845;DHT22;15976;47.938;7.758;2024-02-04T09:11:42;8.60;75.30
28845;DHT22;15976;47.938;7.758;2024-02-04T09:14:09;8.70;75.30
28845;DHT22;15976;47.938;7.758;2024-02-04T09:16:39;8.70;75.10
28845;DHT22;15976;47.938;7.758;2024-02-04T09:19:06;8.70;75.00
28845;DHT22;15976;47.938;7.758;2024-02-04T09:21:34;8.70;74.90
28845;DHT22;15976;47.938;7.758;2024-02-04T09:24:01;8.80;74.90
28845;DHT22;15976;47.938;7.758;2024-02-04T09:26:28;8.80;74.60
28845;DHT22;15976;47.938;7.758;2024-02-04T09:28:55;8.80;74.50
28845;DHT22;15976;47.938;7.758;2024-02-04T09:31:22;8.90;74.70
28845;DHT22;15976;47.938;7.758;2024-02-04T09:33:49;8.90;74.40
28845;DHT22;15976;47.938;7.758;2024-02-04T09:36:17;8.90;74.50
28845;DHT22;15976;47.938;7.758;2024-02-04T09:38:44;9.00;74.50
28845;DHT22;15976;47.938;7.758;2024-02-04T09:41:12;9.00;74.20
28845;DHT22;15976;47.938;7.758;2024-02-04T09:43:39;9.00;74.20
28845;DHT22;15976;47.938;7.758;2024-02-04T09:46:07;9.10;74.30
28845;DHT22;15976;47.938;7.758;2024-02-04T09:48:36;9.10;73.70
28845;DHT22;15976;47.938;7.758;2024-02-04T09:51:06;9.10;73.80
28845;DHT22;15976;47.938;7.758;2024-02-04T09:53:34;9.10;73.80
28845;DHT22;15976;47.938;7.758;2024-02-04T09:56:03;9.20;73.70
28845;DHT22;15976;47.938;7.758;2024-02-04T09:58:33;9.20;73.50
28845;DHT22;15976;47.938;7.758;2024-02-04T10:01:00;9.30;73.50
28845;DHT22;15976;47.938;7.758;2024-02-04T10:03:28;9.30;73.40
28845;DHT22;15976;47.938;7.758;2024-02-04T10:05:56;9.40;74.10
28845;DHT22;15976;47.938;7.758;2024-02-04T10:08:24;9.40;73.10
28845;DHT22;15976;47.938;7.758;2024-02-04T10:10:52;9.50;73.10
28845;DHT22;15976;47.938;7.758;2024-02-04T10:13:21;9.60;72.70
28845;DHT22;15976;47.938;7.758;2024-02-04T10:15:52;9.60;72.20
28845;DHT22;15976;47.938;7.758;2024-02-04T10:18:19;9.60;72.30
28845;DHT22;15976;47.938;7.758;2024-02-04T10:20:47;9.70;72.40
28845;DHT22;15976;47.938;7.758;2024-02-04T10:23:14;9.70;73.00
28845;DHT22;15976;47.938;7.758;2024-02-04T10:25:41;9.60;72.00
28845;DHT22;15976;47.938;7.758;2024-02-04T10:28:08;9.60;72.30
28845;DHT22;15976;47.938;7.758;2024-02-04T10:30:38;9.60;72.50
28845;DHT22;15976;47.938;7.758;2024-02-04T10:33:06;9.60;72.50
28845;DHT22;15976;47.938;7.758;2024-02-04T10:35:33;9.70;72.40
28845;DHT22;15976;47.938;7.758;2024-02-04T10:38:00;9.60;72.40
28845;DHT22;15976;47.938;7.758;2024-02-04T10:40:27;9.70;72.50
28845;DHT22;15976;47.938;7.758;2024-02-04T10:42:58;9.70;72.50
28845;DHT22;15976;47.938;7.758;2024-02-04T10:45:29;9.80;72.50
28845;DHT22;15976;47.938;7.758;2024-02-04T10:48:01;9.80;72.20
28845;DHT22;15976;47.938;7.758;2024-02-04T10:50:30;9.80;72.30
28845;DHT22;15976;47.938;7.758;2024-02-04T10:53:04;9.80;72.40
28845;DHT22;15976;47.938;7.758;2024-02-04T10:55:39;9.90;72.30
28845;DHT22;15976;47.938;7.758;2024-02-04T10:58:07;10.00;72.10
28845;DHT22;15976;47.938;7.758;2024-02-04T11:00:35;10.00;71.80
28845;DHT22;15976;47.938;7.758;2024-02-04T11:03:04;10.10;71.70
28845;DHT22;15976;47.938;7.758;2024-02-04T11:05:33;10.10;71.60
28845;DHT22;15976;47.938;7.758;2024-02-04T11:08:05;10.10;71.60
28845;DHT22;15976;47.938;7.758;2024-02-04T11:10:34;10.20;71.60
28845;DHT22;15976;47.938;7.758;2024-02-04T11:13:02;10.20;71.40
28845;DHT22;15976;47.938;7.758;2024-02-04T11:15:36;10.30;71.20
28845;DHT22;15976;47.938;7.758;2024-02-04T11:25:52;10.60;70.40
28845;DHT22;15976;47.938;7.758;2024-02-04T11:28:23;10.60;70.20
28845;DHT22;15976;47.938;7.758;2024-02-04T11:30:52;10.60;70.20
28845;DHT22;15976;47.938;7.758;2024-02-04T11:33:21;10.60;70.20
28845;DHT22;15976;47.938;7.758;2024-02-04T11:36:07;10.60;70.20
28845;DHT22;15976;47.938;7.758;2024-02-04T11:38:39;10.70;70.20
28845;DHT22;15976;47.938;7.758;2024-02-04T11:41:07;10.70;70.20
28845;DHT22;15976;47.938;7.758;2024-02-04T11:43:37;10.80;70.10
28845;DHT22;15976;47.938;7.758;2024-02-04T11:46:16;10.90;70.10
28845;DHT22;15976;47.938;7.758;2024-02-04T11:48:52;11.10;70.10
28845;DHT22;15976;47.938;7.758;2024-02-04T11:51:24;11.30;69.70
28845;DHT22;15976;47.938;7.758;2024-02-04T11:53:51;11.40;68.70
28845;DHT22;15976;47.938;7.758;2024-02-04T11:56:19;11.50;68.20
28845;DHT22;15976;47.938;7.758;2024-02-04T11:58:46;11.60;68.10
28845;DHT22;15976;47.938;7.758;2024-02-04T12:01:14;11.70;68.00
28845;DHT22;15976;47.938;7.758;2024-02-04T12:03:42;11.80;67.70
28845;DHT22;15976;47.938;7.758;2024-02-04T12:06:10;11.90;66.80
28845;DHT22;15976;47.938;7.758;2024-02-04T12:08:42;11.80;66.90
28845;DHT22;15976;47.938;7.758;2024-02-04T12:11:09;11.80;67.00
28845;DHT22;15976;47.938;7.758;2024-02-04T12:13:36;11.70;66.50
28845;DHT22;15976;47.938;7.758;2024-02-04T12:16:08;11.70;66.90
28845;DHT22;15976;47.938;7.758;2024-02-04T12:18:36;11.60;66.60
28845;DHT22;15976;47.938;7.758;2024-02-04T12:21:03;11.50;67.10
28845;DHT22;15976;47.938;7.758;2024-02-04T12:23:31;11.40;67.30
28845;DHT22;15976;47.938;7.758;2024-02-04T12:25:58;11.40;67.50
28845;DHT22;15976;47.938;7.758;2024-02-04T12:28:25;11.40;67.50
28845;DHT22;15976;47.938;7.758;2024-02-04T12:30:53;11.50;67.90
28845;DHT22;15976;47.938;7.758;2024-02-04T12:33:22;11.60;67.40
28845;DHT22;15976;47.938;7.758;2024-02-04T12:35:51;11.70;66.90
28845;DHT22;15976;47.938;7.758;2024-02-04T12:38:19;11.60;66.50
28845;DHT22;15976;47.938;7.758;2024-02-04T12:40:46;11.60;66.70
28845;DHT22;15976;47.938;7.758;2024-02-04T12:43:13;11.50;67.00
28845;DHT22;15976;47.938;7.758;2024-02-04T12:45:41;11.60;67.30
28845;DHT22;15976;47.938;7.758;2024-02-04T12:48:09;11.70;67.20
28845;DHT22;15976;47.938;7.758;2024-02-04T12:50:37;11.70;66.80
28845;DHT22;15976;47.938;7.758;2024-02-04T12:53:07;11.70;66.60
28845;DHT22;15976;47.938;7.758;2024-02-04T12:55:36;11.60;67.30
28845;DHT22;15976;47.938;7.758;2024-02-04T12:58:08;11.60;67.30
28845;DHT22;15976;47.938;7.758;2024-02-04T13:00:37;11.70;67.00
28845;DHT22;15976;47.938;7.758;2024-02-04T13:03:06;11.70;66.90
28845;DHT22;15976;47.938;7.758;2024-02-04T13:05:37;11.60;66.70
28845;DHT22;15976;47.938;7.758;2024-02-04T13:08:05;11.60;66.80
28845;DHT22;15976;47.938;7.758;2024-02-04T13:10:34;11.60;67.20
28845;DHT22;15976;47.938;7.758;2024-02-04T13:13:06;11.50;67.10
28845;DHT22;15976;47.938;7.758;2024-02-04T13:15:40;11.60;66.70
28845;DHT22;15976;47.938;7.758;2024-02-04T13:18:08;11.60;66.90
28845;DHT22;15976;47.938;7.758;2024-02-04T13:20:38;11.50;66.70
28845;DHT22;15976;47.938;7.758;2024-02-04T13:23:05;11.40;67.10
28845;DHT22;15976;47.938;7.758;2024-02-04T13:25:33;11.50;67.40
28845;DHT22;15976;47.938;7.758;2024-02-04T13:28:00;11.50;67.20
28845;DHT22;15976;47.938;7.758;2024-02-04T13:30:28;11.60;66.80
28845;DHT22;15976;47.938;7.758;2024-02-04T13:32:56;11.60;66.60
28845;DHT22;15976;47.938;7.758;2024-02-04T13:35:24;11.50;66.90
28845;DHT22;15976;47.938;7.758;2024-02-04T13:37:52;11.50;67.00
28845;DHT22;15976;47.938;7.758;2024-02-04T13:40:20;11.60;67.10
28845;DHT22;15976;47.938;7.758;2024-02-04T13:42:48;11.60;67.10
28845;DHT22;15976;47.938;7.758;2024-02-04T13:45:16;11.60;67.10
28845;DHT22;15976;47.938;7.758;2024-02-04T13:47:44;11.70;66.80
28845;DHT22;15976;47.938;7.758;2024-02-04T13:50:11;11.70;66.70
28845;DHT22;15976;47.938;7.758;2024-02-04T13:52:39;11.60;66.60
28845;DHT22;15976;47.938;7.758;2024-02-04T13:55:07;11.40;66.60
28845;DHT22;15976;47.938;7.758;2024-02-04T13:57:35;11.30;67.00
28845;DHT22;15976;47.938;7.758;2024-02-04T14:00:03;11.30;67.40
28845;DHT22;15976;47.938;7.758;2024-02-04T14:02:32;11.20;67.40
28845;DHT22;15976;47.938;7.758;2024-02-04T14:05:00;11.20;67.70
28845;DHT22;15976;47.938;7.758;2024-02-04T14:07:27;11.20;67.90
28845;DHT22;15976;47.938;7.758;2024-02-04T14:09:55;11.30;68.70
28845;DHT22;15976;47.938;7.758;2024-02-04T14:12:22;11.30;68.00
28845;DHT22;15976;47.938;7.758;2024-02-04T14:14:50;11.30;68.00
28845;DHT22;15976;47.938;7.758;2024-02-04T14:17:18;11.20;67.70
28845;DHT22;15976;47.938;7.758;2024-02-04T14:19:45;11.20;68.00
28845;DHT22;15976;47.938;7.758;2024-02-04T14:22:16;11.10;68.00
28845;DHT22;15976;47.938;7.758;2024-02-04T14:24:44;11.10;68.10
28845;DHT22;15976;47.938;7.758;2024-02-04T14:27:12;11.00;68.40
28845;DHT22;15976;47.938;7.758;2024-02-04T14:29:39;11.00;68.60
28845;DHT22;15976;47.938;7.758;2024-02-04T14:32:07;11.00;68.50
28845;DHT22;15976;47.938;7.758;2024-02-04T14:34:35;11.00;68.80
28845;DHT22;15976;47.938;7.758;2024-02-04T14:37:02;10.90;68.70
28845;DHT22;15976;47.938;7.758;2024-02-04T14:39:30;10.90;68.70
28845;DHT22;15976;47.938;7.758;2024-02-04T14:41:58;10.90;69.00
28845;DHT22;15976;47.938;7.758;2024-02-04T14:44:26;10.80;69.10
28845;DHT22;15976;47.938;7.758;2024-02-04T14:46:53;10.90;69.10
28845;DHT22;15976;47.938;7.758;2024-02-04T14:49:20;10.80;69.20
28845;DHT22;15976;47.938;7.758;2024-02-04T14:51:48;10.80;69.20
28845;DHT22;15976;47.938;7.758;2024-02-04T14:54:15;10.70;69.20
28845;DHT22;15976;47.938;7.758;2024-02-04T14:56:42;10.70;69.40
28845;DHT22;15976;47.938;7.758;2024-02-04T14:59:10;10.60;69.60
28845;DHT22;15976;47.938;7.758;2024-02-04T15:01:49;10.50;70.00
28845;DHT22;15976;47.938;7.758;2024-02-04T15:04:17;10.50;70.50
28845;DHT22;15976;47.938;7.758;2024-02-04T15:06:45;10.50;70.70
28845;DHT22;15976;47.938;7.758;2024-02-04T15:09:13;10.50;70.90
28845;DHT22;15976;47.938;7.758;2024-02-04T15:11:42;10.50;71.00
28845;DHT22;15976;47.938;7.758;2024-02-04T15:14:10;10.60;71.00
28845;DHT22;15976;47.938;7.758;2024-02-04T15:16:37;10.60;71.00
28845;DHT22;15976;47.938;7.758;2024-02-04T15:19:07;10.50;70.90
28845;DHT22;15976;47.938;7.758;2024-02-04T15:21:35;10.50;71.00
28845;DHT22;15976;47.938;7.758;2024-02-04T15:24:03;10.50;71.20
28845;DHT22;15976;47.938;7.758;2024-02-04T15:26:35;10.50;71.40
28845;DHT22;15976;47.938;7.758;2024-02-04T15:29:07;10.40;71.40
28845;DHT22;15976;47.938;7.758;2024-02-04T15:31:35;10.50;71.50
28845;DHT22;15976;47.938;7.758;2024-02-04T15:34:03;10.40;71.50
28845;DHT22;15976;47.938;7.758;2024-02-04T15:36:31;10.40;71.60
28845;DHT22;15976;47.938;7.758;2024-02-04T15:39:00;10.30;71.70
28845;DHT22;15976;47.938;7.758;2024-02-04T15:41:29;10.30;71.90
28845;DHT22;15976;47.938;7.758;2024-02-04T15:43:56;10.30;72.00
28845;DHT22;15976;47.938;7.758;2024-02-04T15:46:24;10.20;72.10
28845;DHT22;15976;47.938;7.758;2024-02-04T15:48:52;10.20;72.20
28845;DHT22;15976;47.938;7.758;2024-02-04T15:51:20;10.10;72.20
28845;DHT22;15976;47.938;7.758;2024-02-04T15:53:48;10.00;72.50
28845;DHT22;15976;47.938;7.758;2024-02-04T15:56:19;10.00;72.70
28845;DHT22;15976;47.938;7.758;2024-02-04T15:58:58;9.90;72.90
28845;DHT22;15976;47.938;7.758;2024-02-04T16:01:31;9.80;73.10